sensor_id;sensor_type;location;lat;lon;timestamp;P1;durP1;ratioP1;P2;durP2;ratioP2
52708;SDS011;38606;52.986;6.980;2023-07-13T00:01:28;14.52;;;1.83;;
52708;SDS011;38606;52.986;6.980;2023-07-13T00:03:56;8.07;;;1.60;;
52708;SDS011;38606;52.986;6.980;2023-07-13T00:06:22;6.95;;;1.95;;
52708;SDS011;38606;52.986;6.980;2023-07-13T00:08:48;7.93;;;1.83;;
52708;SDS011;38606;52.986;6.980;2023-07-13T00:11:14;10.32;;;2.50;;
52708;SDS011;38606;52.986;6.980;2023-07-13T00:13:41;15.07;;;2.50;;
52708;SDS011;38606;52.986;6.980;2023-07-13T00:16:08;11.00;;;2.35;;
52708;SDS011;38606;52.986;6.980;2023-07-13T00:18:36;7.53;;;2.42;;
52708;SDS011;38606;52.986;6.980;2023-07-13T00:21:02;9.68;;;2.08;;
52708;SDS011;38606;52.986;6.980;2023-07-13T00:23:32;9.30;;;1.90;;
52708;SDS011;38606;52.986;6.980;2023-07-13T00:26:04;11.82;;;2.22;;
52708;SDS011;38606;52.986;6.980;2023-07-13T00:28:31;8.32;;;1.67;;
52708;SDS011;38606;52.986;6.980;2023-07-13T00:30:58;8.63;;;2.00;;
52708;SDS011;38606;52.986;6.980;2023-07-13T00:33:23;7.38;;;2.10;;
52708;SDS011;38606;52.986;6.980;2023-07-13T00:35:49;9.45;;;2.03;;
52708;SDS011;38606;52.986;6.980;2023-07-13T00:38:15;11.15;;;2.30;;
52708;SDS011;38606;52.986;6.980;2023-07-13T00:40:41;8.40;;;2.13;;
52708;SDS011;38606;52.986;6.980;2023-07-13T00:43:20;10.65;;;2.55;;
52708;SDS011;38606;52.986;6.980;2023-07-13T00:48:17;11.77;;;2.20;;
52708;SDS011;38606;52.986;6.980;2023-07-13T00:50:46;7.72;;;2.45;;
52708;SDS011;38606;52.986;6.980;2023-07-13T00:53:14;14.80;;;2.92;;
52708;SDS011;38606;52.986;6.980;2023-07-13T00:55:40;9.23;;;2.33;;
52708;SDS011;38606;52.986;6.980;2023-07-13T00:58:06;9.88;;;2.17;;
52708;SDS011;38606;52.986;6.980;2023-07-13T01:00:33;11.18;;;2.20;;
52708;SDS011;38606;52.986;6.980;2023-07-13T01:03:01;12.45;;;2.58;;
52708;SDS011;38606;52.986;6.980;2023-07-13T01:05:29;9.10;;;2.53;;
52708;SDS011;38606;52.986;6.980;2023-07-13T01:07:57;13.48;;;2.88;;
52708;SDS011;38606;52.986;6.980;2023-07-13T01:10:24;7.93;;;2.90;;
52708;SDS011;38606;52.986;6.980;2023-07-13T01:12:50;13.20;;;2.60;;
52708;SDS011;38606;52.986;6.980;2023-07-13T01:18:03;10.43;;;2.63;;
52708;SDS011;38606;52.986;6.980;2023-07-13T01:20:34;12.02;;;2.67;;
52708;SDS011;38606;52.986;6.980;2023-07-13T01:23:02;10.75;;;2.38;;
52708;SDS011;38606;52.986;6.980;2023-07-13T01:25:33;12.30;;;2.95;;
52708;SDS011;38606;52.986;6.980;2023-07-13T01:28:00;10.13;;;2.25;;
52708;SDS011;38606;52.986;6.980;2023-07-13T01:30:27;11.32;;;2.85;;
52708;SDS011;38606;52.986;6.980;2023-07-13T01:32:53;12.02;;;2.28;;
52708;SDS011;38606;52.986;6.980;2023-07-13T01:35:18;13.77;;;2.95;;
52708;SDS011;38606;52.986;6.980;2023-07-13T01:37:44;11.57;;;2.53;;
52708;SDS011;38606;52.986;6.980;2023-07-13T01:40:10;14.30;;;2.92;;
52708;SDS011;38606;52.986;6.980;2023-07-13T01:42:37;11.82;;;2.85;;
52708;SDS011;38606;52.986;6.980;2023-07-13T01:45:03;15.95;;;2.45;;
52708;SDS011;38606;52.986;6.980;2023-07-13T01:47:29;9.07;;;2.75;;
52708;SDS011;38606;52.986;6.980;2023-07-13T01:49:56;10.00;;;2.60;;
52708;SDS011;38606;52.986;6.980;2023-07-13T01:52:22;10.25;;;2.00;;
52708;SDS011;38606;52.986;6.980;2023-07-13T01:54:48;13.63;;;2.40;;
52708;SDS011;38606;52.986;6.980;2023-07-13T01:57:14;5.43;;;1.95;;
52708;SDS011;38606;52.986;6.980;2023-07-13T01:59:39;10.02;;;2.05;;
52708;SDS011;38606;52.986;6.980;2023-07-13T02:02:05;8.98;;;2.38;;
52708;SDS011;38606;52.986;6.980;2023-07-13T02:04:31;9.68;;;2.58;;
52708;SDS011;38606;52.986;6.980;2023-07-13T02:06:57;9.38;;;2.03;;
52708;SDS011;38606;52.986;6.980;2023-07-13T02:09:22;11.38;;;2.40;;
52708;SDS011;38606;52.986;6.980;2023-07-13T02:11:48;8.45;;;2.63;;
52708;SDS011;38606;52.986;6.980;2023-07-13T02:14:14;16.25;;;2.78;;
52708;SDS011;38606;52.986;6.980;2023-07-13T02:16:40;8.90;;;2.08;;
52708;SDS011;38606;52.986;6.980;2023-07-13T02:19:07;9.80;;;2.28;;
52708;SDS011;38606;52.986;6.980;2023-07-13T02:21:33;9.00;;;2.50;;
52708;SDS011;38606;52.986;6.980;2023-07-13T02:23:58;12.02;;;2.58;;
52708;SDS011;38606;52.986;6.980;2023-07-13T02:26:25;11.57;;;2.20;;
52708;SDS011;38606;52.986;6.980;2023-07-13T02:28:51;12.73;;;2.63;;
52708;SDS011;38606;52.986;6.980;2023-07-13T02:31:17;11.85;;;2.40;;
52708;SDS011;38606;52.986;6.980;2023-07-13T02:33:43;16.67;;;2.40;;
52708;SDS011;38606;52.986;6.980;2023-07-13T02:36:09;16.65;;;3.58;;
52708;SDS011;38606;52.986;6.980;2023-07-13T02:38:35;14.90;;;2.75;;
52708;SDS011;38606;52.986;6.980;2023-07-13T02:41:04;8.27;;;2.42;;
52708;SDS011;38606;52.986;6.980;2023-07-13T02:43:31;12.88;;;2.70;;
52708;SDS011;38606;52.986;6.980;2023-07-13T02:45:58;13.38;;;2.75;;
52708;SDS011;38606;52.986;6.980;2023-07-13T02:48:29;16.50;;;2.63;;
52708;SDS011;38606;52.986;6.980;2023-07-13T02:50:55;14.50;;;2.53;;
52708;SDS011;38606;52.986;6.980;2023-07-13T02:53:21;9.60;;;2.10;;
52708;SDS011;38606;52.986;6.980;2023-07-13T02:55:46;12.68;;;2.67;;
52708;SDS011;38606;52.986;6.980;2023-07-13T02:58:12;10.07;;;2.20;;
52708;SDS011;38606;52.986;6.980;2023-07-13T03:00:41;13.48;;;2.65;;
52708;SDS011;38606;52.986;6.980;2023-07-13T03:03:08;13.32;;;2.70;;
52708;SDS011;38606;52.986;6.980;2023-07-13T03:05:34;12.30;;;2.92;;
52708;SDS011;38606;52.986;6.980;2023-07-13T03:08:00;17.77;;;3.20;;
52708;SDS011;38606;52.986;6.980;2023-07-13T03:10:25;13.30;;;2.92;;
52708;SDS011;38606;52.986;6.980;2023-07-13T03:12:51;13.70;;;2.70;;
52708;SDS011;38606;52.986;6.980;2023-07-13T03:15:17;12.98;;;3.17;;
52708;SDS011;38606;52.986;6.980;2023-07-13T03:17:42;15.02;;;3.08;;
52708;SDS011;38606;52.986;6.980;2023-07-13T03:20:08;9.75;;;2.40;;
52708;SDS011;38606;52.986;6.980;2023-07-13T03:22:34;14.75;;;2.80;;
52708;SDS011;38606;52.986;6.980;2023-07-13T03:25:00;13.52;;;3.05;;
52708;SDS011;38606;52.986;6.980;2023-07-13T03:27:25;11.07;;;2.67;;
52708;SDS011;38606;52.986;6.980;2023-07-13T03:29:51;13.63;;;2.67;;
52708;SDS011;38606;52.986;6.980;2023-07-13T03:32:17;13.75;;;3.47;;
52708;SDS011;38606;52.986;6.980;2023-07-13T03:34:43;14.27;;;3.10;;
52708;SDS011;38606;52.986;6.980;2023-07-13T03:37:08;15.30;;;2.83;;
52708;SDS011;38606;52.986;6.980;2023-07-13T03:39:34;9.57;;;2.65;;
52708;SDS011;38606;52.986;6.980;2023-07-13T03:42:00;15.82;;;2.55;;
52708;SDS011;38606;52.986;6.980;2023-07-13T03:44:25;16.17;;;3.35;;
52708;SDS011;38606;52.986;6.980;2023-07-13T03:46:51;12.00;;;3.13;;
52708;SDS011;38606;52.986;6.980;2023-07-13T03:49:17;9.52;;;2.75;;
52708;SDS011;38606;52.986;6.980;2023-07-13T03:51:42;9.82;;;2.63;;
52708;SDS011;38606;52.986;6.980;2023-07-13T03:54:08;16.42;;;3.03;;
52708;SDS011;38606;52.986;6.980;2023-07-13T03:56:34;13.00;;;2.95;;
52708;SDS011;38606;52.986;6.980;2023-07-13T03:58:59;11.90;;;2.25;;
52708;SDS011;38606;52.986;6.980;2023-07-13T04:01:25;22.05;;;3.38;;
52708;SDS011;38606;52.986;6.980;2023-07-13T04:03:51;12.27;;;2.80;;
52708;SDS011;38606;52.986;6.980;2023-07-13T04:06:19;14.95;;;2.80;;
52708;SDS011;38606;52.986;6.980;2023-07-13T04:08:51;12.55;;;2.90;;
52708;SDS011;38606;52.986;6.980;2023-07-13T04:11:18;13.70;;;3.08;;
52708;SDS011;38606;52.986;6.980;2023-07-13T04:13:45;12.35;;;3.10;;
52708;SDS011;38606;52.986;6.980;2023-07-13T04:16:12;11.85;;;2.53;;
52708;SDS011;38606;52.986;6.980;2023-07-13T04:18:38;10.70;;;2.83;;
52708;SDS011;38606;52.986;6.980;2023-07-13T04:21:05;15.32;;;3.20;;
52708;SDS011;38606;52.986;6.980;2023-07-13T04:23:31;12.77;;;2.88;;
52708;SDS011;38606;52.986;6.980;2023-07-13T04:25:57;11.18;;;2.47;;
52708;SDS011;38606;52.986;6.980;2023-07-13T04:28:23;11.02;;;2.88;;
52708;SDS011;38606;52.986;6.980;2023-07-13T04:30:50;15.82;;;3.42;;
52708;SDS011;38606;52.986;6.980;2023-07-13T04:33:16;16.23;;;3.22;;
52708;SDS011;38606;52.986;6.980;2023-07-13T04:35:43;11.90;;;3.47;;
52708;SDS011;38606;52.986;6.980;2023-07-13T04:38:11;14.27;;;3.15;;
52708;SDS011;38606;52.986;6.980;2023-07-13T04:40:37;14.98;;;3.50;;
52708;SDS011;38606;52.986;6.980;2023-07-13T04:43:03;16.60;;;3.42;;
52708;SDS011;38606;52.986;6.980;2023-07-13T04:45:29;11.10;;;2.97;;
52708;SDS011;38606;52.986;6.980;2023-07-13T04:47:56;19.33;;;3.78;;
52708;SDS011;38606;52.986;6.980;2023-07-13T04:50:22;11.68;;;2.97;;
52708;SDS011;38606;52.986;6.980;2023-07-13T04:52:51;9.60;;;2.80;;
52708;SDS011;38606;52.986;6.980;2023-07-13T04:55:17;20.23;;;3.75;;
52708;SDS011;38606;52.986;6.980;2023-07-13T04:57:44;16.65;;;3.28;;
52708;SDS011;38606;52.986;6.980;2023-07-13T05:00:09;13.43;;;3.08;;
52708;SDS011;38606;52.986;6.980;2023-07-13T05:02:37;16.65;;;3.65;;
52708;SDS011;38606;52.986;6.980;2023-07-13T05:05:03;13.57;;;3.17;;
52708;SDS011;38606;52.986;6.980;2023-07-13T05:07:30;15.40;;;3.45;;
52708;SDS011;38606;52.986;6.980;2023-07-13T05:09:58;9.52;;;3.38;;
52708;SDS011;38606;52.986;6.980;2023-07-13T05:12:27;13.00;;;3.63;;
52708;SDS011;38606;52.986;6.980;2023-07-13T05:14:52;15.57;;;3.47;;
52708;SDS011;38606;52.986;6.980;2023-07-13T05:17:18;16.65;;;4.00;;
52708;SDS011;38606;52.986;6.980;2023-07-13T05:19:44;14.63;;;3.80;;
52708;SDS011;38606;52.986;6.980;2023-07-13T05:22:09;14.52;;;4.03;;
52708;SDS011;38606;52.986;6.980;2023-07-13T05:24:35;17.38;;;3.25;;
52708;SDS011;38606;52.986;6.980;2023-07-13T05:27:01;12.63;;;3.10;;
52708;SDS011;38606;52.986;6.980;2023-07-13T05:29:27;15.57;;;3.40;;
52708;SDS011;38606;52.986;6.980;2023-07-13T05:31:52;16.45;;;3.20;;
52708;SDS011;38606;52.986;6.980;2023-07-13T05:34:18;12.07;;;3.90;;
52708;SDS011;38606;52.986;6.980;2023-07-13T05:36:44;14.43;;;4.07;;
52708;SDS011;38606;52.986;6.980;2023-07-13T05:39:10;14.30;;;3.30;;
52708;SDS011;38606;52.986;6.980;2023-07-13T05:41:36;9.75;;;3.30;;
52708;SDS011;38606;52.986;6.980;2023-07-13T05:44:02;13.63;;;3.33;;
52708;SDS011;38606;52.986;6.980;2023-07-13T05:46:28;9.70;;;3.28;;
52708;SDS011;38606;52.986;6.980;2023-07-13T05:48:54;15.27;;;3.38;;
52708;SDS011;38606;52.986;6.980;2023-07-13T05:51:19;11.57;;;3.25;;
52708;SDS011;38606;52.986;6.980;2023-07-13T05:53:45;16.70;;;4.05;;
52708;SDS011;38606;52.986;6.980;2023-07-13T05:56:11;13.77;;;3.22;;
52708;SDS011;38606;52.986;6.980;2023-07-13T05:58:37;12.77;;;3.17;;
52708;SDS011;38606;52.986;6.980;2023-07-13T06:01:08;13.13;;;3.45;;
52708;SDS011;38606;52.986;6.980;2023-07-13T06:03:36;11.90;;;3.10;;
52708;SDS011;38606;52.986;6.980;2023-07-13T06:06:03;14.77;;;3.03;;
52708;SDS011;38606;52.986;6.980;2023-07-13T06:08:30;12.85;;;3.28;;
52708;SDS011;38606;52.986;6.980;2023-07-13T06:13:52;9.68;;;3.20;;
52708;SDS011;38606;52.986;6.980;2023-07-13T06:16:19;14.73;;;3.10;;
52708;SDS011;38606;52.986;6.980;2023-07-13T06:18:45;15.43;;;3.85;;
52708;SDS011;38606;52.986;6.980;2023-07-13T06:21:15;11.60;;;3.15;;
52708;SDS011;38606;52.986;6.980;2023-07-13T06:23:43;12.48;;;3.10;;
52708;SDS011;38606;52.986;6.980;2023-07-13T06:26:10;13.45;;;3.63;;
52708;SDS011;38606;52.986;6.980;2023-07-13T06:28:36;13.65;;;3.35;;
52708;SDS011;38606;52.986;6.980;2023-07-13T06:31:04;12.07;;;3.45;;
52708;SDS011;38606;52.986;6.980;2023-07-13T06:33:31;12.95;;;3.42;;
52708;SDS011;38606;52.986;6.980;2023-07-13T06:35:58;12.73;;;3.33;;
52708;SDS011;38606;52.986;6.980;2023-07-13T06:38:23;8.82;;;2.75;;
52708;SDS011;38606;52.986;6.980;2023-07-13T06:40:49;11.40;;;3.55;;
52708;SDS011;38606;52.986;6.980;2023-07-13T06:43:15;12.18;;;3.47;;
52708;SDS011;38606;52.986;6.980;2023-07-13T06:45:45;10.90;;;2.78;;
52708;SDS011;38606;52.986;6.980;2023-07-13T06:48:17;11.88;;;3.00;;
52708;SDS011;38606;52.986;6.980;2023-07-13T06:50:44;9.30;;;2.75;;
52708;SDS011;38606;52.986;6.980;2023-07-13T06:53:10;10.98;;;2.67;;
52708;SDS011;38606;52.986;6.980;2023-07-13T06:55:37;10.00;;;2.80;;
52708;SDS011;38606;52.986;6.980;2023-07-13T06:58:03;13.63;;;2.95;;
52708;SDS011;38606;52.986;6.980;2023-07-13T07:00:29;10.95;;;3.05;;
52708;SDS011;38606;52.986;6.980;2023-07-13T07:02:55;8.95;;;2.50;;
52708;SDS011;38606;52.986;6.980;2023-07-13T07:05:21;11.10;;;2.72;;
52708;SDS011;38606;52.986;6.980;2023-07-13T07:07:47;8.65;;;2.90;;
52708;SDS011;38606;52.986;6.980;2023-07-13T07:10:14;12.18;;;2.92;;
52708;SDS011;38606;52.986;6.980;2023-07-13T07:12:40;12.07;;;2.80;;
52708;SDS011;38606;52.986;6.980;2023-07-13T07:15:06;10.18;;;2.50;;
52708;SDS011;38606;52.986;6.980;2023-07-13T07:17:31;11.27;;;2.60;;
52708;SDS011;38606;52.986;6.980;2023-07-13T07:19:57;8.25;;;3.10;;
52708;SDS011;38606;52.986;6.980;2023-07-13T07:22:23;9.45;;;2.47;;
52708;SDS011;38606;52.986;6.980;2023-07-13T07:24:52;8.05;;;2.40;;
52708;SDS011;38606;52.986;6.980;2023-07-13T07:27:18;9.60;;;2.67;;
52708;SDS011;38606;52.986;6.980;2023-07-13T07:29:43;9.65;;;2.83;;
52708;SDS011;38606;52.986;6.980;2023-07-13T07:32:09;9.30;;;2.50;;
52708;SDS011;38606;52.986;6.980;2023-07-13T07:34:35;7.07;;;2.00;;
52708;SDS011;38606;52.986;6.980;2023-07-13T07:37:01;9.27;;;2.45;;
52708;SDS011;38606;52.986;6.980;2023-07-13T07:39:27;7.82;;;2.30;;
52708;SDS011;38606;52.986;6.980;2023-07-13T07:41:54;10.43;;;2.40;;
52708;SDS011;38606;52.986;6.980;2023-07-13T07:44:20;8.43;;;2.47;;
52708;SDS011;38606;52.986;6.980;2023-07-13T07:46:46;8.57;;;2.60;;
52708;SDS011;38606;52.986;6.980;2023-07-13T07:49:11;9.90;;;2.30;;
52708;SDS011;38606;52.986;6.980;2023-07-13T07:51:37;9.70;;;2.10;;
52708;SDS011;38606;52.986;6.980;2023-07-13T07:54:03;11.13;;;1.98;;
52708;SDS011;38606;52.986;6.980;2023-07-13T07:56:29;7.47;;;2.30;;
52708;SDS011;38606;52.986;6.980;2023-07-13T07:58:55;5.95;;;1.92;;
52708;SDS011;38606;52.986;6.980;2023-07-13T08:01:21;6.35;;;2.33;;
52708;SDS011;38606;52.986;6.980;2023-07-13T08:03:47;7.47;;;2.13;;
52708;SDS011;38606;52.986;6.980;2023-07-13T08:06:13;9.25;;;1.90;;
52708;SDS011;38606;52.986;6.980;2023-07-13T08:08:39;6.32;;;2.00;;
52708;SDS011;38606;52.986;6.980;2023-07-13T08:11:06;7.85;;;1.90;;
52708;SDS011;38606;52.986;6.980;2023-07-13T08:13:33;11.63;;;2.30;;
52708;SDS011;38606;52.986;6.980;2023-07-13T08:15:59;7.22;;;2.08;;
52708;SDS011;38606;52.986;6.980;2023-07-13T08:18:25;8.65;;;2.17;;
52708;SDS011;38606;52.986;6.980;2023-07-13T08:20:53;7.15;;;2.60;;
52708;SDS011;38606;52.986;6.980;2023-07-13T08:23:21;6.45;;;2.20;;
52708;SDS011;38606;52.986;6.980;2023-07-13T08:25:53;10.73;;;2.40;;
52708;SDS011;38606;52.986;6.980;2023-07-13T08:28:20;7.47;;;2.77;;
52708;SDS011;38606;52.986;6.980;2023-07-13T08:30:46;10.13;;;2.30;;
52708;SDS011;38606;52.986;6.980;2023-07-13T08:33:20;10.00;;;2.40;;
52708;SDS011;38606;52.986;6.980;2023-07-13T08:35:49;12.30;;;2.63;;
52708;SDS011;38606;52.986;6.980;2023-07-13T08:38:16;10.55;;;2.83;;
52708;SDS011;38606;52.986;6.980;2023-07-13T08:40:42;10.15;;;2.72;;
52708;SDS011;38606;52.986;6.980;2023-07-13T08:43:13;8.30;;;2.40;;
52708;SDS011;38606;52.986;6.980;2023-07-13T08:45:47;8.68;;;2.50;;
52708;SDS011;38606;52.986;6.980;2023-07-13T08:48:22;9.27;;;2.78;;
52708;SDS011;38606;52.986;6.980;2023-07-13T08:50:55;10.27;;;3.00;;
52708;SDS011;38606;52.986;6.980;2023-07-13T08:53:34;13.73;;;2.88;;
52708;SDS011;38606;52.986;6.980;2023-07-13T08:56:03;7.43;;;2.30;;
52708;SDS011;38606;52.986;6.980;2023-07-13T08:58:34;7.50;;;2.40;;
52708;SDS011;38606;52.986;6.980;2023-07-13T09:01:15;7.03;;;2.55;;
52708;SDS011;38606;52.986;6.980;2023-07-13T09:04:18;7.65;;;2.33;;
52708;SDS011;38606;52.986;6.980;2023-07-13T09:06:55;10.57;;;2.80;;
52708;SDS011;38606;52.986;6.980;2023-07-13T09:09:34;9.73;;;2.67;;
52708;SDS011;38606;52.986;6.980;2023-07-13T09:15:05;7.55;;;2.08;;
52708;SDS011;38606;52.986;6.980;2023-07-13T09:17:50;6.22;;;1.92;;
52708;SDS011;38606;52.986;6.980;2023-07-13T09:23:09;8.43;;;1.90;;
52708;SDS011;38606;52.986;6.980;2023-07-13T09:25:39;3.22;;;1.67;;
52708;SDS011;38606;52.986;6.980;2023-07-13T09:33:28;6.75;;;1.55;;
52708;SDS011;38606;52.986;6.980;2023-07-13T09:35:59;5.10;;;1.50;;
52708;SDS011;38606;52.986;6.980;2023-07-13T09:38:28;4.97;;;1.60;;
52708;SDS011;38606;52.986;6.980;2023-07-13T09:44:00;5.45;;;1.88;;
52708;SDS011;38606;52.986;6.980;2023-07-13T09:46:26;4.32;;;1.95;;
52708;SDS011;38606;52.986;6.980;2023-07-13T09:48:52;7.18;;;2.25;;
52708;SDS011;38606;52.986;6.980;2023-07-13T09:51:18;6.57;;;2.30;;
52708;SDS011;38606;52.986;6.980;2023-07-13T09:53:43;5.57;;;1.95;;
52708;SDS011;38606;52.986;6.980;2023-07-13T09:56:19;5.28;;;2.30;;
52708;SDS011;38606;52.986;6.980;2023-07-13T09:58:45;7.25;;;2.42;;
52708;SDS011;38606;52.986;6.980;2023-07-13T10:01:11;6.03;;;2.33;;
52708;SDS011;38606;52.986;6.980;2023-07-13T10:03:37;4.47;;;1.98;;
52708;SDS011;38606;52.986;6.980;2023-07-13T10:06:11;3.85;;;2.30;;
52708;SDS011;38606;52.986;6.980;2023-07-13T10:08:37;4.70;;;2.05;;
52708;SDS011;38606;52.986;6.980;2023-07-13T10:13:42;3.00;;;1.20;;
52708;SDS011;38606;52.986;6.980;2023-07-13T10:16:20;3.35;;;1.30;;
52708;SDS011;38606;52.986;6.980;2023-07-13T10:22:00;2.08;;;1.08;;
52708;SDS011;38606;52.986;6.980;2023-07-13T10:24:32;2.60;;;1.10;;
52708;SDS011;38606;52.986;6.980;2023-07-13T10:29:45;2.50;;;1.45;;
52708;SDS011;38606;52.986;6.980;2023-07-13T10:32:17;3.70;;;1.20;;
52708;SDS011;38606;52.986;6.980;2023-07-13T10:34:47;1.75;;;0.95;;
52708;SDS011;38606;52.986;6.980;2023-07-13T10:37:19;2.85;;;1.17;;
52708;SDS011;38606;52.986;6.980;2023-07-13T10:39:48;4.32;;;1.33;;
52708;SDS011;38606;52.986;6.980;2023-07-13T10:45:02;1.63;;;1.10;;
52708;SDS011;38606;52.986;6.980;2023-07-13T10:47:37;2.10;;;1.05;;
52708;SDS011;38606;52.986;6.980;2023-07-13T10:50:05;2.75;;;1.27;;
52708;SDS011;38606;52.986;6.980;2023-07-13T10:52:43;2.00;;;1.23;;
52708;SDS011;38606;52.986;6.980;2023-07-13T10:58:15;2.03;;;1.40;;
52708;SDS011;38606;52.986;6.980;2023-07-13T11:00:56;2.08;;;1.08;;
52708;SDS011;38606;52.986;6.980;2023-07-13T11:03:47;4.30;;;1.50;;
52708;SDS011;38606;52.986;6.980;2023-07-13T11:08:58;2.08;;;1.40;;
52708;SDS011;38606;52.986;6.980;2023-07-13T11:11:42;3.65;;;1.70;;
52708;SDS011;38606;52.986;6.980;2023-07-13T11:14:27;4.00;;;1.58;;
52708;SDS011;38606;52.986;6.980;2023-07-13T11:17:23;2.50;;;1.40;;
52708;SDS011;38606;52.986;6.980;2023-07-13T11:19:53;3.85;;;1.40;;
52708;SDS011;38606;52.986;6.980;2023-07-13T11:22:23;2.35;;;1.50;;
52708;SDS011;38606;52.986;6.980;2023-07-13T11:25:20;7.18;;;2.28;;
52708;SDS011;38606;52.986;6.980;2023-07-13T11:27:51;8.23;;;2.65;;
52708;SDS011;38606;52.986;6.980;2023-07-13T11:30:32;8.65;;;2.40;;
52708;SDS011;38606;52.986;6.980;2023-07-13T11:33:22;5.20;;;2.28;;
52708;SDS011;38606;52.986;6.980;2023-07-13T11:36:15;7.03;;;2.03;;
52708;SDS011;38606;52.986;6.980;2023-07-13T11:38:51;6.28;;;2.63;;
52708;SDS011;38606;52.986;6.980;2023-07-13T11:41:37;3.05;;;1.80;;
52708;SDS011;38606;52.986;6.980;2023-07-13T11:44:15;4.68;;;2.20;;
52708;SDS011;38606;52.986;6.980;2023-07-13T11:46:47;4.38;;;2.00;;
52708;SDS011;38606;52.986;6.980;2023-07-13T11:49:16;7.80;;;2.40;;
52708;SDS011;38606;52.986;6.980;2023-07-13T11:51:43;4.25;;;2.13;;
52708;SDS011;38606;52.986;6.980;2023-07-13T11:54:30;5.25;;;2.22;;
52708;SDS011;38606;52.986;6.980;2023-07-13T11:57:00;6.40;;;2.63;;
52708;SDS011;38606;52.986;6.980;2023-07-13T11:59:31;4.10;;;1.83;;
52708;SDS011;38606;52.986;6.980;2023-07-13T12:01:58;6.88;;;2.30;;
52708;SDS011;38606;52.986;6.980;2023-07-13T12:04:28;5.90;;;1.98;;
52708;SDS011;38606;52.986;6.980;2023-07-13T12:07:07;4.25;;;2.80;;
52708;SDS011;38606;52.986;6.980;2023-07-13T12:09:42;7.40;;;2.95;;
52708;SDS011;38606;52.986;6.980;2023-07-13T12:12:16;4.75;;;2.30;;
52708;SDS011;38606;52.986;6.980;2023-07-13T12:14:43;4.78;;;2.58;;
52708;SDS011;38606;52.986;6.980;2023-07-13T12:17:15;4.10;;;2.70;;
52708;SDS011;38606;52.986;6.980;2023-07-13T12:19:44;4.18;;;2.45;;
52708;SDS011;38606;52.986;6.980;2023-07-13T12:22:12;5.30;;;2.42;;
52708;SDS011;38606;52.986;6.980;2023-07-13T12:24:39;4.22;;;2.17;;
52708;SDS011;38606;52.986;6.980;2023-07-13T12:27:06;4.97;;;2.15;;
52708;SDS011;38606;52.986;6.980;2023-07-13T12:29:50;4.70;;;2.50;;
52708;SDS011;38606;52.986;6.980;2023-07-13T12:32:18;3.28;;;2.30;;
52708;SDS011;38606;52.986;6.980;2023-07-13T12:35:02;3.38;;;2.10;;
52708;SDS011;38606;52.986;6.980;2023-07-13T12:37:42;5.50;;;2.30;;
52708;SDS011;38606;52.986;6.980;2023-07-13T12:40:13;4.75;;;2.22;;
52708;SDS011;38606;52.986;6.980;2023-07-13T12:42:44;3.75;;;2.13;;
52708;SDS011;38606;52.986;6.980;2023-07-13T12:45:25;6.53;;;2.45;;
52708;SDS011;38606;52.986;6.980;2023-07-13T12:48:15;7.25;;;2.17;;
52708;SDS011;38606;52.986;6.980;2023-07-13T12:50:42;5.57;;;2.22;;
52708;SDS011;38606;52.986;6.980;2023-07-13T12:53:17;5.32;;;1.88;;
52708;SDS011;38606;52.986;6.980;2023-07-13T12:55:47;4.10;;;1.98;;
52708;SDS011;38606;52.986;6.980;2023-07-13T12:58:21;4.32;;;2.25;;
52708;SDS011;38606;52.986;6.980;2023-07-13T13:00:51;4.03;;;2.10;;
52708;SDS011;38606;52.986;6.980;2023-07-13T13:05:59;8.30;;;2.83;;
52708;SDS011;38606;52.986;6.980;2023-07-13T13:08:28;4.07;;;1.88;;
52708;SDS011;38606;52.986;6.980;2023-07-13T13:10:54;9.02;;;2.10;;
52708;SDS011;38606;52.986;6.980;2023-07-13T13:13:20;8.40;;;2.38;;
52708;SDS011;38606;52.986;6.980;2023-07-13T13:15:45;4.57;;;1.63;;
52708;SDS011;38606;52.986;6.980;2023-07-13T13:18:30;8.20;;;1.80;;
52708;SDS011;38606;52.986;6.980;2023-07-13T13:20:56;2.47;;;1.20;;
52708;SDS011;38606;52.986;6.980;2023-07-13T13:23:22;4.25;;;1.20;;
52708;SDS011;38606;52.986;6.980;2023-07-13T13:25:49;6.15;;;1.30;;
52708;SDS011;38606;52.986;6.980;2023-07-13T13:28:20;4.03;;;1.30;;
52708;SDS011;38606;52.986;6.980;2023-07-13T13:30:47;5.30;;;1.08;;
52708;SDS011;38606;52.986;6.980;2023-07-13T13:33:15;7.57;;;1.65;;
52708;SDS011;38606;52.986;6.980;2023-07-13T13:35:42;4.90;;;0.98;;
52708;SDS011;38606;52.986;6.980;2023-07-13T13:38:15;3.63;;;0.93;;
52708;SDS011;38606;52.986;6.980;2023-07-13T13:40:42;2.42;;;1.00;;
52708;SDS011;38606;52.986;6.980;2023-07-13T13:43:16;4.55;;;1.08;;
52708;SDS011;38606;52.986;6.980;2023-07-13T13:45:43;4.82;;;0.95;;
52708;SDS011;38606;52.986;6.980;2023-07-13T13:48:53;2.15;;;0.98;;
52708;SDS011;38606;52.986;6.980;2023-07-13T13:51:01;2.78;;;1.00;;
52708;SDS011;38606;52.986;6.980;2023-07-13T13:53:37;2.00;;;0.90;;
52708;SDS011;38606;52.986;6.980;2023-07-13T13:56:03;2.17;;;1.05;;
52708;SDS011;38606;52.986;6.980;2023-07-13T13:58:30;3.90;;;0.85;;
52708;SDS011;38606;52.986;6.980;2023-07-13T14:00:56;2.03;;;0.98;;
52708;SDS011;38606;52.986;6.980;2023-07-13T14:03:23;2.78;;;1.15;;
52708;SDS011;38606;52.986;6.980;2023-07-13T14:05:49;2.80;;;1.08;;
52708;SDS011;38606;52.986;6.980;2023-07-13T14:08:16;4.82;;;1.33;;
52708;SDS011;38606;52.986;6.980;2023-07-13T14:10:48;2.85;;;1.05;;
52708;SDS011;38606;52.986;6.980;2023-07-13T14:13:37;1.95;;;1.08;;
52708;SDS011;38606;52.986;6.980;2023-07-13T14:16:26;3.83;;;1.02;;
52708;SDS011;38606;52.986;6.980;2023-07-13T14:18:59;2.90;;;1.30;;
52708;SDS011;38606;52.986;6.980;2023-07-13T14:21:26;3.40;;;1.20;;
52708;SDS011;38606;52.986;6.980;2023-07-13T14:23:53;2.70;;;1.10;;
52708;SDS011;38606;52.986;6.980;2023-07-13T14:26:20;3.47;;;1.38;;
52708;SDS011;38606;52.986;6.980;2023-07-13T14:28:51;3.38;;;1.42;;
52708;SDS011;38606;52.986;6.980;2023-07-13T14:31:18;4.88;;;1.10;;
52708;SDS011;38606;52.986;6.980;2023-07-13T14:33:47;5.00;;;1.60;;
52708;SDS011;38606;52.986;6.980;2023-07-13T14:36:29;2.75;;;1.13;;
52708;SDS011;38606;52.986;6.980;2023-07-13T14:38:58;6.80;;;1.42;;
52708;SDS011;38606;52.986;6.980;2023-07-13T14:41:26;1.98;;;1.20;;
52708;SDS011;38606;52.986;6.980;2023-07-13T14:43:52;3.20;;;0.90;;
52708;SDS011;38606;52.986;6.980;2023-07-13T14:46:22;3.40;;;1.00;;
52708;SDS011;38606;52.986;6.980;2023-07-13T14:49:39;2.53;;;1.00;;
52708;SDS011;38606;52.986;6.980;2023-07-13T14:51:48;3.00;;;1.15;;
52708;SDS011;38606;52.986;6.980;2023-07-13T14:54:14;2.25;;;0.82;;
52708;SDS011;38606;52.986;6.980;2023-07-13T14:56:39;2.13;;;0.82;;
52708;SDS011;38606;52.986;6.980;2023-07-13T14:59:05;2.38;;;1.38;;
52708;SDS011;38606;52.986;6.980;2023-07-13T15:01:33;4.13;;;1.00;;
52708;SDS011;38606;52.986;6.980;2023-07-13T15:04:02;4.47;;;0.95;;
52708;SDS011;38606;52.986;6.980;2023-07-13T15:06:29;2.83;;;1.15;;
52708;SDS011;38606;52.986;6.980;2023-07-13T15:08:56;2.65;;;1.10;;
52708;SDS011;38606;52.986;6.980;2023-07-13T15:11:22;3.30;;;1.05;;
52708;SDS011;38606;52.986;6.980;2023-07-13T15:13:49;4.25;;;1.13;;
52708;SDS011;38606;52.986;6.980;2023-07-13T15:16:18;2.22;;;1.10;;
52708;SDS011;38606;52.986;6.980;2023-07-13T15:18:48;3.28;;;1.30;;
52708;SDS011;38606;52.986;6.980;2023-07-13T15:21:19;2.50;;;1.25;;
52708;SDS011;38606;52.986;6.980;2023-07-13T15:23:47;3.63;;;1.48;;
52708;SDS011;38606;52.986;6.980;2023-07-13T15:26:13;3.35;;;1.10;;
52708;SDS011;38606;52.986;6.980;2023-07-13T15:28:41;4.15;;;1.23;;
52708;SDS011;38606;52.986;6.980;2023-07-13T15:31:19;3.83;;;1.30;;
52708;SDS011;38606;52.986;6.980;2023-07-13T15:33:50;1.88;;;1.20;;
52708;SDS011;38606;52.986;6.980;2023-07-13T15:36:20;4.20;;;1.20;;